Time;durP1;ratioP1;P1;durP2;ratioP2;P2;SDS_P1;SDS_P2;PMS_P1;PMS_P2;Temp;Humidity;BMP_temperature;BMP_pressure;BME280_temperature;BME280_humidity;BME280_pressure;Samples;Min_cycle;Max_cycle;Signal;HPM_P1;HPM_P2
2024/03/25 00:00:37;;;;;;;1.10;0.75;;;10.50;55.80;;;;;;5016728;28;20172;-58
2024/03/25 00:03:04;;;;;;;0.50;0.50;;;10.50;55.80;;;;;;5013218;28;20851;-56
2024/03/25 00:05:32;;;;;;;2.92;0.98;;;10.40;55.80;;;;;;5008490;28;20061;-57
2024/03/25 00:07:59;;;;;;;4.00;1.65;;;10.40;56.50;;;;;;5009615;28;20061;-55
2024/03/25 00:10:26;;;;;;;1.00;1.00;;;10.40;55.90;;;;;;5010368;28;20049;-59
2024/03/25 00:12:55;;;;;;;4.15;1.02;;;10.50;55.90;;;;;;5013486;28;20057;-56
2024/03/25 00:15:23;;;;;;;10.63;1.65;;;10.50;55.80;;;;;;5010459;28;20176;-55
2024/03/25 00:17:50;;;;;;;19.02;3.83;;;10.60;55.80;;;;;;5010950;28;20065;-56
2024/03/25 00:20:17;;;;;;;2.13;1.35;;;10.70;55.70;;;;;;5010382;28;20068;-57
2024/03/25 00:22:44;;;;;;;1.08;0.98;;;10.70;55.60;;;;;;5011642;28;20061;-55
2024/03/25 00:25:12;;;;;;;1.83;1.10;;;10.70;55.60;;;;;;5006103;28;20053;-53
2024/03/25 00:27:38;;;;;;;2.00;1.23;;;10.70;55.70;;;;;;5011341;28;20053;-55
2024/03/25 00:30:09;;;;;;;1.83;1.45;;;10.80;55.60;;;;;;5007156;28;20064;-55
2024/03/25 00:32:35;;;;;;;4.68;2.33;;;10.80;56.30;;;;;;5012224;28;20072;-58
2024/03/25 00:35:02;;;;;;;4.13;1.98;;;10.80;55.60;;;;;;5011950;28;20053;-58
2024/03/25 00:37:29;;;;;;;7.00;1.70;;;10.90;55.60;;;;;;5009735;28;20127;-55
2024/03/25 00:39:56;;;;;;;4.75;1.40;;;11.00;55.60;;;;;;5007080;28;20053;-57
2024/03/25 00:42:22;;;;;;;0.70;0.70;;;11.00;55.50;;;;;;5005145;28;20051;-59
2024/03/25 00:44:49;;;;;;;7.13;2.00;;;11.00;55.40;;;;;;5006858;28;20745;-57
2024/03/25 00:47:17;;;;;;;0.90;0.90;;;11.00;55.40;;;;;;5013211;28;20060;-58
2024/03/25 00:49:44;;;;;;;0.90;0.90;;;11.10;55.40;;;;;;5011138;28;20061;-54
2024/03/25 00:52:11;;;;;;;1.27;1.13;;;11.10;55.30;;;;;;4997566;28;20053;-54
2024/03/25 00:54:38;;;;;;;1.48;1.10;;;11.10;55.30;;;;;;4994343;28;20057;-57
2024/03/25 00:57:05;;;;;;;2.40;1.50;;;11.20;55.30;;;;;;5009947;28;20073;-57
2024/03/25 00:59:32;;;;;;;16.70;6.25;;;11.20;55.30;;;;;;5010598;28;20424;-57
2024/03/25 01:01:58;;;;;;;1.55;1.17;;;11.30;55.20;;;;;;5010005;28;20136;-53
2024/03/25 01:04:27;;;;;;;23.25;6.95;;;11.30;55.20;;;;;;5005647;28;20053;-56
2024/03/25 01:06:53;;;;;;;19.65;5.20;;;11.20;55.00;;;;;;5013156;28;20045;-57
2024/03/25 01:09:21;;;;;;;0.80;0.80;;;11.20;55.00;;;;;;5013975;28;20080;-57
2024/03/25 01:11:48;;;;;;;9.27;2.97;;;11.10;55.10;;;;;;5006861;28;20046;-58
2024/03/25 01:14:15;;;;;;;0.60;0.60;;;11.00;55.20;;;;;;5006025;28;20056;-57
2024/03/25 01:16:42;;;;;;;2.45;2.03;;;11.00;55.20;;;;;;5006347;28;20476;-57
2024/03/25 01:19:09;;;;;;;11.15;4.13;;;11.00;55.30;;;;;;5011628;28;20049;-56
2024/03/25 01:21:37;;;;;;;3.28;1.40;;;10.90;55.40;;;;;;5011481;28;20049;-57
2024/03/25 01:24:05;;;;;;;0.98;0.98;;;11.00;55.40;;;;;;5011727;28;20053;-55
2024/03/25 01:26:31;;;;;;;6.72;3.38;;;11.00;55.50;;;;;;5010000;28;20061;-58
2024/03/25 01:28:59;;;;;;;1.38;0.95;;;11.00;55.40;;;;;;5013091;28;20054;-58
2024/03/25 01:31:25;;;;;;;0.93;0.93;;;11.00;55.40;;;;;;5006760;28;20053;-59
2024/03/25 01:33:52;;;;;;;1.60;1.40;;;10.90;55.30;;;;;;5006673;28;20187;-58
2024/03/25 01:36:18;;;;;;;1.60;1.40;;;10.80;55.30;;;;;;5003815;28;20033;-59
2024/03/25 01:38:47;;;;;;;1.40;1.30;;;10.80;55.40;;;;;;5010831;28;20045;-57
2024/03/25 01:41:15;;;;;;;3.42;1.50;;;10.70;55.50;;;;;;5004707;28;20136;-58
2024/03/25 01:43:42;;;;;;;1.17;0.70;;;10.70;55.50;;;;;;5011157;28;20049;-57
2024/03/25 01:46:10;;;;;;;1.42;1.15;;;10.60;55.50;;;;;;5002496;28;20053;-56
2024/03/25 01:48:37;;;;;;;2.50;1.45;;;10.60;55.50;;;;;;5010356;28;20115;-55
2024/03/25 01:51:04;;;;;;;2.38;1.00;;;10.60;55.50;;;;;;5006506;28;20069;-57
2024/03/25 01:53:32;;;;;;;1.58;1.48;;;10.60;55.50;;;;;;5010155;28;20053;-57
2024/03/25 01:56:00;;;;;;;1.80;1.10;;;10.50;56.10;;;;;;5009829;28;20443;-54
2024/03/25 01:58:28;;;;;;;0.77;0.77;;;10.50;55.40;;;;;;5010907;28;20563;-58
2024/03/25 02:00:55;;;;;;;2.65;1.10;;;10.50;55.40;;;;;;5009778;28;20057;-57
2024/03/25 02:03:23;;;;;;;2.20;1.13;;;10.40;55.40;;;;;;5008172;28;20537;-54
2024/03/25 02:05:55;;;;;;;1.65;1.15;;;10.30;55.40;;;;;;5009477;28;20927;-55
2024/03/25 02:08:23;;;;;;;0.80;0.80;;;10.30;55.50;;;;;;5006548;28;20902;-56
2024/03/25 02:10:49;;;;;;;1.02;1.02;;;10.10;55.40;;;;;;5006358;28;20094;-57
2024/03/25 02:13:18;;;;;;;2.15;0.70;;;10.00;55.50;;;;;;5002002;28;20054;-56
2024/03/25 02:15:44;;;;;;;0.80;0.80;;;9.90;55.70;;;;;;5024775;28;20060;-57
2024/03/25 02:18:12;;;;;;;0.60;0.60;;;9.80;55.80;;;;;;5006398;28;20060;-54
2024/03/25 02:20:38;;;;;;;0.82;0.65;;;9.80;56.00;;;;;;5012522;28;20574;-56
2024/03/25 02:23:05;;;;;;;2.95;0.95;;;9.80;56.10;;;;;;4998412;28;20058;-57
2024/03/25 02:25:33;;;;;;;3.08;0.95;;;9.70;56.10;;;;;;5014836;28;20053;-55
2024/03/25 02:28:02;;;;;;;9.07;0.75;;;9.70;56.10;;;;;;5006241;28;20154;-56
2024/03/25 02:30:28;;;;;;;2.95;1.13;;;9.70;56.90;;;;;;5012486;28;20057;-59
2024/03/25 02:32:55;;;;;;;1.05;0.95;;;9.70;56.10;;;;;;5010636;28;20057;-59
2024/03/25 02:35:24;;;;;;;1.80;1.52;;;9.70;56.10;;;;;;5006145;28;20050;-56
2024/03/25 02:37:52;;;;;;;0.85;0.85;;;9.70;56.90;;;;;;5008731;28;20125;-53
2024/03/25 02:40:19;;;;;;;0.75;0.75;;;9.70;56.20;;;;;;5009965;28;20037;-61
2024/03/25 02:42:46;;;;;;;1.10;1.08;;;9.70;56.30;;;;;;5009174;28;20064;-57
2024/03/25 02:45:14;;;;;;;0.98;0.98;;;9.70;56.30;;;;;;5008860;28;20045;-59
2024/03/25 02:47:41;;;;;;;2.25;1.25;;;9.70;56.40;;;;;;5014174;28;20065;-62
2024/03/25 02:50:08;;;;;;;1.17;1.08;;;9.70;56.40;;;;;;5003982;28;20154;-56
2024/03/25 02:52:35;;;;;;;4.68;1.38;;;9.80;56.30;;;;;;5012835;28;20065;-55
2024/03/25 02:55:01;;;;;;;0.85;0.85;;;9.80;56.30;;;;;;5010135;28;20046;-59
2024/03/25 02:57:28;;;;;;;4.30;1.40;;;9.80;56.20;;;;;;5015281;28;20053;-61
2024/03/25 02:59:55;;;;;;;1.42;0.90;;;9.80;56.20;;;;;;5017614;28;20061;-60
2024/03/25 03:02:23;;;;;;;0.80;0.80;;;9.90;56.20;;;;;;5004834;28;21541;-61
2024/03/25 03:04:51;;;;;;;1.00;0.90;;;9.90;56.30;;;;;;5012171;28;20150;-57
2024/03/25 03:07:18;;;;;;;1.17;1.05;;;9.90;56.10;;;;;;5012523;28;20049;-55
2024/03/25 03:09:44;;;;;;;0.75;0.75;;;9.90;56.20;;;;;;5014841;28;20064;-55
2024/03/25 03:12:11;;;;;;;0.80;0.80;;;9.90;56.20;;;;;;5005600;28;20057;-56
2024/03/25 03:14:37;;;;;;;1.15;1.10;;;9.90;56.30;;;;;;5011885;28;20061;-57
2024/03/25 03:17:05;;;;;;;1.73;1.38;;;9.90;56.30;;;;;;5011947;28;20135;-60
2024/03/25 03:19:33;;;;;;;1.17;1.05;;;9.90;56.30;;;;;;5011293;28;20444;-57
2024/03/25 03:22:03;;;;;;;0.90;0.88;;;9.90;56.30;;;;;;5008703;28;20049;-54
2024/03/25 03:24:29;;;;;;;6.45;1.15;;;9.90;56.30;;;;;;5008194;28;20053;-62
2024/03/25 03:26:57;;;;;;;1.27;0.90;;;9.90;56.30;;;;;;5013032;28;20058;-54
2024/03/25 03:29:23;;;;;;;1.75;1.05;;;9.90;56.30;;;;;;5009579;28;20114;-57
2024/03/25 03:31:50;;;;;;;1.05;1.05;;;9.90;56.30;;;;;;5014523;28;20065;-58
2024/03/25 03:34:17;;;;;;;4.95;1.10;;;9.80;57.10;;;;;;5006973;28;20057;-56
2024/03/25 03:36:45;;;;;;;1.52;1.17;;;9.80;56.50;;;;;;5011717;28;20065;-56
2024/03/25 03:39:12;;;;;;;0.75;0.75;;;9.80;56.50;;;;;;5011033;28;20676;-56
2024/03/25 03:41:40;;;;;;;0.93;0.93;;;9.80;56.50;;;;;;5006670;28;20248;-57
2024/03/25 03:44:06;;;;;;;1.35;1.25;;;9.70;56.50;;;;;;5002658;28;20049;-56
2024/03/25 03:46:34;;;;;;;1.20;0.90;;;9.70;56.60;;;;;;5007678;28;20732;-57
2024/03/25 03:49:00;;;;;;;2.13;1.48;;;9.70;56.50;;;;;;5009155;28;20098;-52
2024/03/25 03:51:27;;;;;;;2.75;1.67;;;9.70;56.50;;;;;;5006772;28;20149;-55
2024/03/25 03:53:56;;;;;;;1.50;1.23;;;9.70;56.50;;;;;;5009859;28;20061;-56
2024/03/25 03:56:23;;;;;;;3.65;1.50;;;9.70;56.50;;;;;;5000993;28;20053;-56
2024/03/25 03:58:49;;;;;;;1.83;1.55;;;9.60;56.60;;;;;;5013830;28;20054;-57
2024/03/25 04:01:17;;;;;;;1.40;1.20;;;9.60;57.40;;;;;;5013393;28;20073;-53
2024/03/25 04:03:43;;;;;;;1.58;1.48;;;9.70;56.80;;;;;;4990596;28;20412;-57
2024/03/25 04:06:12;;;;;;;2.58;1.92;;;9.60;56.70;;;;;;5010550;28;20064;-56
2024/03/25 04:08:39;;;;;;;2.20;1.20;;;9.60;56.80;;;;;;5009685;28;20472;-60
2024/03/25 04:11:08;;;;;;;4.80;1.38;;;9.60;56.70;;;;;;5010089;28;20578;-58
2024/03/25 04:13:34;;;;;;;1.40;1.30;;;9.60;56.80;;;;;;5007443;28;20045;-55
2024/03/25 04:16:04;;;;;;;1.35;1.23;;;9.70;56.90;;;;;;5008795;28;20052;-56
2024/03/25 04:18:30;;;;;;;1.52;1.05;;;9.70;56.70;;;;;;5011904;28;20072;-59
2024/03/25 04:20:58;;;;;;;2.55;1.38;;;9.80;56.80;;;;;;5008733;28;20069;-56
2024/03/25 04:23:24;;;;;;;1.90;1.23;;;9.90;56.70;;;;;;5012525;28;20554;-55
2024/03/25 04:25:52;;;;;;;1.67;1.55;;;9.90;56.90;;;;;;5011713;28;20131;-52
2024/03/25 04:28:22;;;;;;;3.70;3.05;;;9.90;56.60;;;;;;5002853;28;20045;-55
2024/03/25 04:30:54;;;;;;;2.45;1.77;;;9.90;56.60;;;;;;5009878;28;20536;-54
2024/03/25 04:33:20;;;;;;;2.30;1.35;;;10.00;56.70;;;;;;5010052;28;20069;-52
2024/03/25 04:35:48;;;;;;;1.08;1.08;;;10.00;56.50;;;;;;5013021;28;20053;-55
